Edgewater, Wisconsin
Current Conditions -  °F | °C
As of 1:53 AM on Tuesday 27 Jan 2015 (Local Time) from KHYR Reporting Station
Overcast Overcast  
Wind Chill: 22°   Ceiling: 1500
Heat Index: 27°   Visibility: 10mi
Dew Point: 23°   Wind: 5mph
Humidity: 85%   Direction: 10°N
Pressure: 30.01"   Gusts: NA
Location:  45.74°N, 91.48°W
Report Text: KHYR 270753Z AUTO 01004KT 10SM OVC015 M03/M05 A3001 RMK AO2 SLP182 T10281050
Loading
Personal Weather Stations






























Interactive Weather Map New forecast layout! Learn more

10-Day Weather Forecast

Advertisements
Track Severe Weather on mobile